sensor_id;sensor_type;location;lat;lon;timestamp;temperature;humidity
6724;DHT22;3399;52.530;13.304;2023-02-07T00:00:13;-2.20;99.90
6724;DHT22;3399;52.530;13.304;2023-02-07T00:02:43;-2.50;99.90
6724;DHT22;3399;52.530;13.304;2023-02-07T00:05:09;-2.80;99.90
6724;DHT22;3399;52.530;13.304;2023-02-07T00:07:36;-2.90;99.90
6724;DHT22;3399;52.530;13.304;2023-02-07T00:10:02;-3.10;99.90
6724;DHT22;3399;52.530;13.304;2023-02-07T00:12:28;-3.20;99.90
6724;DHT22;3399;52.530;13.304;2023-02-07T00:14:53;-3.40;99.90
6724;DHT22;3399;52.530;13.304;2023-02-07T00:17:19;-3.30;99.90
6724;DHT22;3399;52.530;13.304;2023-02-07T00:19:44;-3.30;99.90
6724;DHT22;3399;52.530;13.304;2023-02-07T00:22:10;-3.30;99.90
6724;DHT22;3399;52.530;13.304;2023-02-07T00:24:35;-3.50;99.90
6724;DHT22;3399;52.530;13.304;2023-02-07T00:27:01;-3.50;99.90
6724;DHT22;3399;52.530;13.304;2023-02-07T00:29:26;-3.50;99.90
6724;DHT22;3399;52.530;13.304;2023-02-07T00:31:52;-3.50;99.90
6724;DHT22;3399;52.530;13.304;2023-02-07T00:34:17;-3.60;99.90
6724;DHT22;3399;52.530;13.304;2023-02-07T00:36:43;-3.60;99.90
6724;DHT22;3399;52.530;13.304;2023-02-07T00:39:14;-3.40;99.90
6724;DHT22;3399;52.530;13.304;2023-02-07T00:41:41;-3.10;99.90
6724;DHT22;3399;52.530;13.304;2023-02-07T00:44:07;-3.20;99.90
6724;DHT22;3399;52.530;13.304;2023-02-07T00:46:33;-3.50;99.90
6724;DHT22;3399;52.530;13.304;2023-02-07T00:48:59;-3.80;99.90
6724;DHT22;3399;52.530;13.304;2023-02-07T00:51:25;-3.90;99.90
6724;DHT22;3399;52.530;13.304;2023-02-07T00:53:52;-4.00;99.90
6724;DHT22;3399;52.530;13.304;2023-02-07T00:56:22;-4.00;99.90
6724;DHT22;3399;52.530;13.304;2023-02-07T00:58:48;-4.10;99.90
6724;DHT22;3399;52.530;13.304;2023-02-07T01:01:14;-4.10;99.90
6724;DHT22;3399;52.530;13.304;2023-02-07T01:03:40;-4.00;99.90
6724;DHT22;3399;52.530;13.304;2023-02-07T01:06:07;-4.10;99.90
6724;DHT22;3399;52.530;13.304;2023-02-07T01:08:33;-4.00;99.90
6724;DHT22;3399;52.530;13.304;2023-02-07T01:11:11;-4.10;99.90
6724;DHT22;3399;52.530;13.304;2023-02-07T01:13:38;-4.00;99.90
6724;DHT22;3399;52.530;13.304;2023-02-07T01:16:03;-3.90;99.90
6724;DHT22;3399;52.530;13.304;2023-02-07T01:18:29;-3.80;99.90
6724;DHT22;3399;52.530;13.304;2023-02-07T01:20:55;-3.40;99.90
6724;DHT22;3399;52.530;13.304;2023-02-07T01:23:21;-3.20;99.90
6724;DHT22;3399;52.530;13.304;2023-02-07T01:25:46;-3.00;99.90
6724;DHT22;3399;52.530;13.304;2023-02-07T01:28:13;-2.80;99.90
6724;DHT22;3399;52.530;13.304;2023-02-07T01:30:40;-3.00;99.90
6724;DHT22;3399;52.530;13.304;2023-02-07T01:33:05;-2.90;99.90
6724;DHT22;3399;52.530;13.304;2023-02-07T01:35:31;-3.10;99.90
6724;DHT22;3399;52.530;13.304;2023-02-07T01:37:56;-3.20;99.90
6724;DHT22;3399;52.530;13.304;2023-02-07T01:40:28;-3.00;99.90
6724;DHT22;3399;52.530;13.304;2023-02-07T01:42:54;-3.10;99.90
6724;DHT22;3399;52.530;13.304;2023-02-07T01:45:34;-3.20;99.90
6724;DHT22;3399;52.530;13.304;2023-02-07T01:48:06;-3.50;99.90
6724;DHT22;3399;52.530;13.304;2023-02-07T01:50:32;-3.70;99.90
6724;DHT22;3399;52.530;13.304;2023-02-07T01:53:01;-3.60;99.90
6724;DHT22;3399;52.530;13.304;2023-02-07T01:55:30;-3.70;99.90
6724;DHT22;3399;52.530;13.304;2023-02-07T01:57:57;-3.80;99.90
6724;DHT22;3399;52.530;13.304;2023-02-07T02:00:24;-3.90;99.90
6724;DHT22;3399;52.530;13.304;2023-02-07T02:02:49;-3.50;99.90
6724;DHT22;3399;52.530;13.304;2023-02-07T02:05:15;-3.30;99.90
6724;DHT22;3399;52.530;13.304;2023-02-07T02:07:42;-3.60;99.90
6724;DHT22;3399;52.530;13.304;2023-02-07T02:10:15;-3.80;99.90
6724;DHT22;3399;52.530;13.304;2023-02-07T02:12:53;-3.90;99.90
6724;DHT22;3399;52.530;13.304;2023-02-07T02:15:38;-3.70;99.90
6724;DHT22;3399;52.530;13.304;2023-02-07T02:18:29;-3.60;99.90
6724;DHT22;3399;52.530;13.304;2023-02-07T02:24:23;-3.30;99.90
6724;DHT22;3399;52.530;13.304;2023-02-07T02:29:46;-3.30;99.90
6724;DHT22;3399;52.530;13.304;2023-02-07T02:35:07;-3.70;99.90
6724;DHT22;3399;52.530;13.304;2023-02-07T02:40:32;-4.00;99.90
6724;DHT22;3399;52.530;13.304;2023-02-07T02:43:13;-4.10;99.90
6724;DHT22;3399;52.530;13.304;2023-02-07T02:45:45;-4.30;99.90
6724;DHT22;3399;52.530;13.304;2023-02-07T02:48:12;-4.40;99.90
6724;DHT22;3399;52.530;13.304;2023-02-07T02:50:37;-4.30;99.90
6724;DHT22;3399;52.530;13.304;2023-02-07T02:53:04;-4.00;99.90
6724;DHT22;3399;52.530;13.304;2023-02-07T03:01:29;-4.30;99.90
6724;DHT22;3399;52.530;13.304;2023-02-07T03:04:23;-4.10;99.90
6724;DHT22;3399;52.530;13.304;2023-02-07T03:09:47;-3.80;99.90
6724;DHT22;3399;52.530;13.304;2023-02-07T03:15:28;-3.40;99.90
6724;DHT22;3399;52.530;13.304;2023-02-07T03:18:03;-3.20;99.90
6724;DHT22;3399;52.530;13.304;2023-02-07T03:20:35;-3.20;99.90
6724;DHT22;3399;52.530;13.304;2023-02-07T03:23:03;-3.20;99.90
6724;DHT22;3399;52.530;13.304;2023-02-07T03:25:31;-3.20;99.90
6724;DHT22;3399;52.530;13.304;2023-02-07T03:27:57;-3.30;99.90
6724;DHT22;3399;52.530;13.304;2023-02-07T03:30:27;-3.60;99.90
6724;DHT22;3399;52.530;13.304;2023-02-07T03:32:58;-3.90;99.90
6724;DHT22;3399;52.530;13.304;2023-02-07T03:35:36;-4.10;99.90
6724;DHT22;3399;52.530;13.304;2023-02-07T03:38:03;-4.30;99.90
6724;DHT22;3399;52.530;13.304;2023-02-07T03:40:35;-4.40;99.90
6724;DHT22;3399;52.530;13.304;2023-02-07T03:43:05;-4.50;99.90
6724;DHT22;3399;52.530;13.304;2023-02-07T03:45:32;-4.60;99.90
6724;DHT22;3399;52.530;13.304;2023-02-07T03:47:58;-4.50;99.90
6724;DHT22;3399;52.530;13.304;2023-02-07T03:50:24;-4.50;99.90
6724;DHT22;3399;52.530;13.304;2023-02-07T03:52:49;-4.60;99.90
6724;DHT22;3399;52.530;13.304;2023-02-07T03:55:15;-4.60;99.90
6724;DHT22;3399;52.530;13.304;2023-02-07T03:57:40;-4.40;99.90
6724;DHT22;3399;52.530;13.304;2023-02-07T04:00:07;-4.20;99.90
6724;DHT22;3399;52.530;13.304;2023-02-07T04:02:33;-4.30;99.90
6724;DHT22;3399;52.530;13.304;2023-02-07T04:04:58;-4.60;99.90
6724;DHT22;3399;52.530;13.304;2023-02-07T04:07:25;-4.80;99.90
6724;DHT22;3399;52.530;13.304;2023-02-07T04:09:50;-5.00;99.90
6724;DHT22;3399;52.530;13.304;2023-02-07T04:12:16;-5.00;99.90
6724;DHT22;3399;52.530;13.304;2023-02-07T04:14:41;-4.50;99.90
6724;DHT22;3399;52.530;13.304;2023-02-07T04:17:07;-4.60;99.90
6724;DHT22;3399;52.530;13.304;2023-02-07T04:19:32;-4.50;99.90
6724;DHT22;3399;52.530;13.304;2023-02-07T04:21:58;-4.70;99.90
6724;DHT22;3399;52.530;13.304;2023-02-07T04:24:23;-4.60;99.90
6724;DHT22;3399;52.530;13.304;2023-02-07T04:26:49;-4.40;99.90
6724;DHT22;3399;52.530;13.304;2023-02-07T04:29:14;-4.20;99.90
6724;DHT22;3399;52.530;13.304;2023-02-07T04:31:40;-4.40;99.90
6724;DHT22;3399;52.530;13.304;2023-02-07T04:34:07;-4.60;99.90
6724;DHT22;3399;52.530;13.304;2023-02-07T04:36:34;-4.60;99.90
6724;DHT22;3399;52.530;13.304;2023-02-07T04:38:59;-4.40;99.90
6724;DHT22;3399;52.530;13.304;2023-02-07T04:41:25;-4.00;99.90
6724;DHT22;3399;52.530;13.304;2023-02-07T04:43:50;-3.90;99.90
6724;DHT22;3399;52.530;13.304;2023-02-07T04:46:16;-4.10;99.90
6724;DHT22;3399;52.530;13.304;2023-02-07T04:48:41;-4.30;99.90
6724;DHT22;3399;52.530;13.304;2023-02-07T04:51:07;-4.20;99.90
6724;DHT22;3399;52.530;13.304;2023-02-07T04:53:33;-4.20;99.90
6724;DHT22;3399;52.530;13.304;2023-02-07T04:55:58;-4.40;99.90
6724;DHT22;3399;52.530;13.304;2023-02-07T04:58:24;-4.50;99.90
6724;DHT22;3399;52.530;13.304;2023-02-07T05:00:50;-4.60;99.90
6724;DHT22;3399;52.530;13.304;2023-02-07T05:03:16;-4.70;99.90
6724;DHT22;3399;52.530;13.304;2023-02-07T05:05:42;-4.70;99.90
6724;DHT22;3399;52.530;13.304;2023-02-07T05:08:09;-4.50;99.90
6724;DHT22;3399;52.530;13.304;2023-02-07T05:10:36;-4.60;99.90
6724;DHT22;3399;52.530;13.304;2023-02-07T05:13:01;-4.50;99.90
6724;DHT22;3399;52.530;13.304;2023-02-07T05:15:27;-4.40;99.90
6724;DHT22;3399;52.530;13.304;2023-02-07T05:17:53;-4.40;99.90
6724;DHT22;3399;52.530;13.304;2023-02-07T05:20:19;-4.20;99.90
6724;DHT22;3399;52.530;13.304;2023-02-07T05:22:44;-3.90;99.90
6724;DHT22;3399;52.530;13.304;2023-02-07T05:25:10;-4.10;99.90
6724;DHT22;3399;52.530;13.304;2023-02-07T05:27:36;-4.30;99.90
6724;DHT22;3399;52.530;13.304;2023-02-07T05:30:02;-4.30;99.90
6724;DHT22;3399;52.530;13.304;2023-02-07T05:32:27;-4.30;99.90
6724;DHT22;3399;52.530;13.304;2023-02-07T05:35:11;-4.10;99.90
6724;DHT22;3399;52.530;13.304;2023-02-07T05:37:37;-3.90;99.90
6724;DHT22;3399;52.530;13.304;2023-02-07T05:40:03;-4.00;99.90
6724;DHT22;3399;52.530;13.304;2023-02-07T05:42:28;-4.30;99.90
6724;DHT22;3399;52.530;13.304;2023-02-07T05:44:54;-4.40;99.90
6724;DHT22;3399;52.530;13.304;2023-02-07T05:47:19;-4.60;99.90
6724;DHT22;3399;52.530;13.304;2023-02-07T05:49:45;-4.60;99.90
6724;DHT22;3399;52.530;13.304;2023-02-07T05:52:10;-4.60;99.90
6724;DHT22;3399;52.530;13.304;2023-02-07T05:54:36;-4.70;99.90
6724;DHT22;3399;52.530;13.304;2023-02-07T05:57:01;-4.70;99.90
6724;DHT22;3399;52.530;13.304;2023-02-07T05:59:27;-4.80;99.90
6724;DHT22;3399;52.530;13.304;2023-02-07T06:01:52;-4.70;99.90
6724;DHT22;3399;52.530;13.304;2023-02-07T06:04:18;-4.70;99.90
6724;DHT22;3399;52.530;13.304;2023-02-07T06:06:43;-4.50;99.90
6724;DHT22;3399;52.530;13.304;2023-02-07T06:09:09;-4.40;99.90
6724;DHT22;3399;52.530;13.304;2023-02-07T06:11:34;-4.40;99.90
6724;DHT22;3399;52.530;13.304;2023-02-07T06:14:00;-4.40;99.90
6724;DHT22;3399;52.530;13.304;2023-02-07T06:16:25;-4.50;99.90
6724;DHT22;3399;52.530;13.304;2023-02-07T06:18:51;-4.40;99.90
6724;DHT22;3399;52.530;13.304;2023-02-07T06:21:16;-4.20;99.90
6724;DHT22;3399;52.530;13.304;2023-02-07T06:23:42;-4.20;99.90
6724;DHT22;3399;52.530;13.304;2023-02-07T06:26:07;-4.30;99.90
6724;DHT22;3399;52.530;13.304;2023-02-07T06:28:33;-4.00;99.90
6724;DHT22;3399;52.530;13.304;2023-02-07T06:30:58;-4.20;99.90
6724;DHT22;3399;52.530;13.304;2023-02-07T06:33:24;-4.30;99.90
6724;DHT22;3399;52.530;13.304;2023-02-07T06:35:50;-4.10;99.90
6724;DHT22;3399;52.530;13.304;2023-02-07T06:38:17;-4.20;99.90
6724;DHT22;3399;52.530;13.304;2023-02-07T06:40:42;-4.30;99.90
6724;DHT22;3399;52.530;13.304;2023-02-07T06:43:08;-4.40;99.90
6724;DHT22;3399;52.530;13.304;2023-02-07T06:45:34;-4.50;99.90
6724;DHT22;3399;52.530;13.304;2023-02-07T06:48:00;-4.40;99.90
6724;DHT22;3399;52.530;13.304;2023-02-07T06:50:26;-4.40;99.90
6724;DHT22;3399;52.530;13.304;2023-02-07T06:52:51;-4.30;99.90
6724;DHT22;3399;52.530;13.304;2023-02-07T06:55:17;-4.40;99.90
6724;DHT22;3399;52.530;13.304;2023-02-07T06:57:42;-4.40;99.90
6724;DHT22;3399;52.530;13.304;2023-02-07T07:00:08;-4.50;99.90
6724;DHT22;3399;52.530;13.304;2023-02-07T07:02:34;-4.40;99.90
6724;DHT22;3399;52.530;13.304;2023-02-07T07:04:59;-4.00;99.90
6724;DHT22;3399;52.530;13.304;2023-02-07T07:07:25;-4.00;99.90
6724;DHT22;3399;52.530;13.304;2023-02-07T07:09:52;-3.60;99.90
6724;DHT22;3399;52.530;13.304;2023-02-07T07:12:17;-3.70;99.90
6724;DHT22;3399;52.530;13.304;2023-02-07T07:14:43;-3.60;99.90
6724;DHT22;3399;52.530;13.304;2023-02-07T07:17:08;-3.60;99.90
6724;DHT22;3399;52.530;13.304;2023-02-07T07:19:34;-3.50;99.90
6724;DHT22;3399;52.530;13.304;2023-02-07T07:21:59;-3.50;99.90
6724;DHT22;3399;52.530;13.304;2023-02-07T07:24:25;-3.50;99.90
6724;DHT22;3399;52.530;13.304;2023-02-07T07:26:51;-3.50;99.90
6724;DHT22;3399;52.530;13.304;2023-02-07T07:29:17;-3.50;99.90
6724;DHT22;3399;52.530;13.304;2023-02-07T07:31:44;-3.50;99.90
6724;DHT22;3399;52.530;13.304;2023-02-07T07:34:09;-3.30;99.90
6724;DHT22;3399;52.530;13.304;2023-02-07T07:36:35;-3.20;99.90
6724;DHT22;3399;52.530;13.304;2023-02-07T07:39:01;-3.20;99.90
6724;DHT22;3399;52.530;13.304;2023-02-07T07:41:26;-3.20;99.90
6724;DHT22;3399;52.530;13.304;2023-02-07T07:43:52;-3.20;99.90
6724;DHT22;3399;52.530;13.304;2023-02-07T07:46:17;-3.20;99.90
6724;DHT22;3399;52.530;13.304;2023-02-07T07:48:42;-3.30;99.90
6724;DHT22;3399;52.530;13.304;2023-02-07T07:51:08;-3.20;99.90
6724;DHT22;3399;52.530;13.304;2023-02-07T07:53:34;-3.10;99.90
6724;DHT22;3399;52.530;13.304;2023-02-07T07:55:59;-3.00;99.90
6724;DHT22;3399;52.530;13.304;2023-02-07T07:58:25;-2.90;99.90
6724;DHT22;3399;52.530;13.304;2023-02-07T08:00:51;-2.70;99.90
6724;DHT22;3399;52.530;13.304;2023-02-07T08:03:17;-2.70;99.90
6724;DHT22;3399;52.530;13.304;2023-02-07T08:05:43;-2.70;99.90
6724;DHT22;3399;52.530;13.304;2023-02-07T08:08:10;-2.50;99.90
6724;DHT22;3399;52.530;13.304;2023-02-07T08:10:36;-2.50;99.90
6724;DHT22;3399;52.530;13.304;2023-02-07T08:13:01;-2.40;99.90
6724;DHT22;3399;52.530;13.304;2023-02-07T08:15:27;-2.20;99.90
6724;DHT22;3399;52.530;13.304;2023-02-07T08:17:53;-2.20;99.90
6724;DHT22;3399;52.530;13.304;2023-02-07T08:20:18;-2.20;99.90
6724;DHT22;3399;52.530;13.304;2023-02-07T08:22:44;-2.10;99.90
6724;DHT22;3399;52.530;13.304;2023-02-07T08:25:09;-2.10;99.90
6724;DHT22;3399;52.530;13.304;2023-02-07T08:27:35;-2.00;99.90
6724;DHT22;3399;52.530;13.304;2023-02-07T08:30:01;-2.00;99.90
6724;DHT22;3399;52.530;13.304;2023-02-07T08:32:27;-2.00;99.90
6724;DHT22;3399;52.530;13.304;2023-02-07T08:34:54;-2.00;99.90
6724;DHT22;3399;52.530;13.304;2023-02-07T08:37:19;-1.90;99.90
6724;DHT22;3399;52.530;13.304;2023-02-07T08:39:45;-1.80;99.90
6724;DHT22;3399;52.530;13.304;2023-02-07T08:42:11;-1.80;99.90
6724;DHT22;3399;52.530;13.304;2023-02-07T08:44:36;-1.70;99.90
6724;DHT22;3399;52.530;13.304;2023-02-07T08:47:02;-1.60;99.90
6724;DHT22;3399;52.530;13.304;2023-02-07T08:49:28;-1.60;99.90
6724;DHT22;3399;52.530;13.304;2023-02-07T08:51:54;-1.50;99.90
6724;DHT22;3399;52.530;13.304;2023-02-07T08:54:19;-1.30;99.90
6724;DHT22;3399;52.530;13.304;2023-02-07T08:56:45;-1.20;99.90
6724;DHT22;3399;52.530;13.304;2023-02-07T08:59:11;-1.10;99.90
6724;DHT22;3399;52.530;13.304;2023-02-07T09:01:36;-1.00;99.90
6724;DHT22;3399;52.530;13.304;2023-02-07T09:04:02;-0.80;99.90
6724;DHT22;3399;52.530;13.304;2023-02-07T09:06:27;-0.60;99.90
6724;DHT22;3399;52.530;13.304;2023-02-07T09:08:53;-0.60;99.90
6724;DHT22;3399;52.530;13.304;2023-02-07T09:11:19;-0.40;99.90
6724;DHT22;3399;52.530;13.304;2023-02-07T09:13:44;-0.30;99.90
6724;DHT22;3399;52.530;13.304;2023-02-07T09:16:12;-0.40;99.90
6724;DHT22;3399;52.530;13.304;2023-02-07T09:18:38;-0.40;99.90
6724;DHT22;3399;52.530;13.304;2023-02-07T09:21:04;-0.30;99.90
6724;DHT22;3399;52.530;13.304;2023-02-07T09:23:31;-0.30;99.90
6724;DHT22;3399;52.530;13.304;2023-02-07T09:26:03;-0.30;99.90
6724;DHT22;3399;52.530;13.304;2023-02-07T09:28:30;-0.10;99.90
6724;DHT22;3399;52.530;13.304;2023-02-07T09:30:56;-0.20;99.90
6724;DHT22;3399;52.530;13.304;2023-02-07T09:33:21;-0.20;99.90
6724;DHT22;3399;52.530;13.304;2023-02-07T09:35:48;-0.10;99.90
6724;DHT22;3399;52.530;13.304;2023-02-07T09:38:16;-0.20;99.90
6724;DHT22;3399;52.530;13.304;2023-02-07T09:40:44;-0.20;99.90
6724;DHT22;3399;52.530;13.304;2023-02-07T09:46:31;0.00;99.90
6724;DHT22;3399;52.530;13.304;2023-02-07T09:49:25;0.10;99.90
6724;DHT22;3399;52.530;13.304;2023-02-07T09:51:53;0.20;99.90
6724;DHT22;3399;52.530;13.304;2023-02-07T09:54:24;0.30;99.90
6724;DHT22;3399;52.530;13.304;2023-02-07T09:56:53;0.50;99.90
6724;DHT22;3399;52.530;13.304;2023-02-07T09:59:27;0.70;99.90
6724;DHT22;3399;52.530;13.304;2023-02-07T10:01:59;0.80;99.90
6724;DHT22;3399;52.530;13.304;2023-02-07T10:04:34;1.00;99.90
6724;DHT22;3399;52.530;13.304;2023-02-07T10:07:03;1.20;99.90
6724;DHT22;3399;52.530;13.304;2023-02-07T10:09:31;1.20;99.90
6724;DHT22;3399;52.530;13.304;2023-02-07T10:15:07;1.30;99.90
6724;DHT22;3399;52.530;13.304;2023-02-07T10:18:11;1.50;99.90
6724;DHT22;3399;52.530;13.304;2023-02-07T10:20:51;1.50;99.90
6724;DHT22;3399;52.530;13.304;2023-02-07T10:26:29;1.90;99.90
6724;DHT22;3399;52.530;13.304;2023-02-07T10:29:07;1.80;99.90
6724;DHT22;3399;52.530;13.304;2023-02-07T10:31:39;2.00;99.90
6724;DHT22;3399;52.530;13.304;2023-02-07T10:34:23;2.20;99.90
6724;DHT22;3399;52.530;13.304;2023-02-07T10:36:51;2.50;99.90
6724;DHT22;3399;52.530;13.304;2023-02-07T10:39:32;2.70;99.90
6724;DHT22;3399;52.530;13.304;2023-02-07T10:42:01;2.70;99.90
6724;DHT22;3399;52.530;13.304;2023-02-07T10:44:27;2.80;99.90
6724;DHT22;3399;52.530;13.304;2023-02-07T10:47:00;2.50;99.90
6724;DHT22;3399;52.530;13.304;2023-02-07T10:49:28;2.50;99.90
6724;DHT22;3399;52.530;13.304;2023-02-07T10:51:56;2.70;99.90
6724;DHT22;3399;52.530;13.304;2023-02-07T10:54:22;2.80;99.90
6724;DHT22;3399;52.530;13.304;2023-02-07T10:56:51;3.00;99.90
6724;DHT22;3399;52.530;13.304;2023-02-07T10:59:40;2.90;99.90
6724;DHT22;3399;52.530;13.304;2023-02-07T11:02:34;3.10;99.90
6724;DHT22;3399;52.530;13.304;2023-02-07T11:07:39;3.30;98.90
6724;DHT22;3399;52.530;13.304;2023-02-07T11:10:19;3.30;97.70
6724;DHT22;3399;52.530;13.304;2023-02-07T11:13:10;3.50;97.00
6724;DHT22;3399;52.530;13.304;2023-02-07T11:15:44;3.60;97.00
6724;DHT22;3399;52.530;13.304;2023-02-07T11:18:28;3.40;97.80
6724;DHT22;3399;52.530;13.304;2023-02-07T11:20:55;3.40;97.10
6724;DHT22;3399;52.530;13.304;2023-02-07T11:23:21;3.70;97.20
6724;DHT22;3399;52.530;13.304;2023-02-07T11:25:47;3.50;96.70
6724;DHT22;3399;52.530;13.304;2023-02-07T11:28:19;3.60;97.30
6724;DHT22;3399;52.530;13.304;2023-02-07T11:30:45;3.80;98.80
6724;DHT22;3399;52.530;13.304;2023-02-07T11:33:18;4.00;96.80
6724;DHT22;3399;52.530;13.304;2023-02-07T11:36:11;4.10;96.20
6724;DHT22;3399;52.530;13.304;2023-02-07T11:38:46;4.30;97.40
6724;DHT22;3399;52.530;13.304;2023-02-07T11:41:24;4.50;96.40
6724;DHT22;3399;52.530;13.304;2023-02-07T11:43:55;4.40;95.30
6724;DHT22;3399;52.530;13.304;2023-02-07T11:46:28;4.30;95.70
6724;DHT22;3399;52.530;13.304;2023-02-07T11:48:57;4.90;96.70
6724;DHT22;3399;52.530;13.304;2023-02-07T11:51:23;5.00;94.90
6724;DHT22;3399;52.530;13.304;2023-02-07T11:53:56;4.80;94.10
6724;DHT22;3399;52.530;13.304;2023-02-07T11:56:36;5.10;95.10
6724;DHT22;3399;52.530;13.304;2023-02-07T11:59:05;5.20;93.20
6724;DHT22;3399;52.530;13.304;2023-02-07T12:01:33;5.40;93.60
6724;DHT22;3399;52.530;13.304;2023-02-07T12:04:46;6.20;92.80
6724;DHT22;3399;52.530;13.304;2023-02-07T12:07:06;6.40;92.10
6724;DHT22;3399;52.530;13.304;2023-02-07T12:12:04;6.50;92.00
6724;DHT22;3399;52.530;13.304;2023-02-07T12:14:37;6.30;92.50
6724;DHT22;3399;52.530;13.304;2023-02-07T12:17:07;6.20;92.40
6724;DHT22;3399;52.530;13.304;2023-02-07T12:19:46;6.40;92.90
6724;DHT22;3399;52.530;13.304;2023-02-07T12:22:18;6.70;92.20
6724;DHT22;3399;52.530;13.304;2023-02-07T12:24:55;7.00;91.30
6724;DHT22;3399;52.530;13.304;2023-02-07T12:27:39;7.10;91.20
6724;DHT22;3399;52.530;13.304;2023-02-07T12:30:35;7.60;90.50
6724;DHT22;3399;52.530;13.304;2023-02-07T12:33:22;7.80;86.50
6724;DHT22;3399;52.530;13.304;2023-02-07T12:38:43;7.80;85.70
6724;DHT22;3399;52.530;13.304;2023-02-07T12:41:36;7.40;85.00
6724;DHT22;3399;52.530;13.304;2023-02-07T12:46:41;7.20;87.10
6724;DHT22;3399;52.530;13.304;2023-02-07T12:49:18;7.80;81.00
6724;DHT22;3399;52.530;13.304;2023-02-07T12:57:30;8.50;77.40
6724;DHT22;3399;52.530;13.304;2023-02-07T13:02:39;9.50;73.00
6724;DHT22;3399;52.530;13.304;2023-02-07T13:08:27;9.10;73.70
6724;DHT22;3399;52.530;13.304;2023-02-07T13:11:20;8.80;71.80
6724;DHT22;3399;52.530;13.304;2023-02-07T13:14:27;8.80;73.30
6724;DHT22;3399;52.530;13.304;2023-02-07T13:17:27;9.70;71.70
6724;DHT22;3399;52.530;13.304;2023-02-07T13:22:49;9.80;71.50
6724;DHT22;3399;52.530;13.304;2023-02-07T13:25:39;10.70;67.20
6724;DHT22;3399;52.530;13.304;2023-02-07T13:31:16;9.60;67.20
6724;DHT22;3399;52.530;13.304;2023-02-07T13:33:43;9.20;69.00
6724;DHT22;3399;52.530;13.304;2023-02-07T13:36:34;9.50;69.70
6724;DHT22;3399;52.530;13.304;2023-02-07T13:39:14;10.70;64.80
6724;DHT22;3399;52.530;13.304;2023-02-07T13:41:44;10.00;67.20
6724;DHT22;3399;52.530;13.304;2023-02-07T13:47:18;9.20;68.70
6724;DHT22;3399;52.530;13.304;2023-02-07T13:50:00;9.90;68.00
6724;DHT22;3399;52.530;13.304;2023-02-07T13:52:46;10.30;65.40
6724;DHT22;3399;52.530;13.304;2023-02-07T13:57:47;10.00;64.90
6724;DHT22;3399;52.530;13.304;2023-02-07T14:03:30;8.60;65.70
6724;DHT22;3399;52.530;13.304;2023-02-07T14:06:24;7.80;67.80
6724;DHT22;3399;52.530;13.304;2023-02-07T14:11:38;6.20;72.60
6724;DHT22;3399;52.530;13.304;2023-02-07T14:14:11;5.80;73.50
6724;DHT22;3399;52.530;13.304;2023-02-07T14:16:50;5.50;75.40
6724;DHT22;3399;52.530;13.304;2023-02-07T14:22:24;4.70;79.10
6724;DHT22;3399;52.530;13.304;2023-02-07T14:32:38;4.10;83.60
6724;DHT22;3399;52.530;13.304;2023-02-07T14:37:38;3.90;85.20
6724;DHT22;3399;52.530;13.304;2023-02-07T14:42:53;3.80;86.10
6724;DHT22;3399;52.530;13.304;2023-02-07T14:45:20;3.60;86.20
6724;DHT22;3399;52.530;13.304;2023-02-07T14:47:47;3.50;86.90
6724;DHT22;3399;52.530;13.304;2023-02-07T14:50:18;3.50;88.00
6724;DHT22;3399;52.530;13.304;2023-02-07T14:52:46;3.40;88.00
6724;DHT22;3399;52.530;13.304;2023-02-07T14:55:16;3.30;88.10
6724;DHT22;3399;52.530;13.304;2023-02-07T14:57:56;3.30;88.80
6724;DHT22;3399;52.530;13.304;2023-02-07T15:02:57;3.20;91.50
6724;DHT22;3399;52.530;13.304;2023-02-07T15:05:34;3.10;90.60
6724;DHT22;3399;52.530;13.304;2023-02-07T15:08:07;3.10;90.80
6724;DHT22;3399;52.530;13.304;2023-02-07T15:10:38;3.00;90.80
6724;DHT22;3399;52.530;13.304;2023-02-07T15:13:17;3.10;92.30
6724;DHT22;3399;52.530;13.304;2023-02-07T15:15:48;3.00;91.40
6724;DHT22;3399;52.530;13.304;2023-02-07T15:18:18;2.90;91.30
6724;DHT22;3399;52.530;13.304;2023-02-07T15:20:49;2.80;91.30
6724;DHT22;3399;52.530;13.304;2023-02-07T15:23:16;2.70;92.00
6724;DHT22;3399;52.530;13.304;2023-02-07T15:25:42;2.70;92.10
6724;DHT22;3399;52.530;13.304;2023-02-07T15:28:29;2.60;91.90
6724;DHT22;3399;52.530;13.304;2023-02-07T15:31:11;2.50;92.40
6724;DHT22;3399;52.530;13.304;2023-02-07T15:39:05;2.20;92.80
6724;DHT22;3399;52.530;13.304;2023-02-07T15:41:31;2.10;92.80
6724;DHT22;3399;52.530;13.304;2023-02-07T15:44:05;2.00;93.00
6724;DHT22;3399;52.530;13.304;2023-02-07T15:52:21;1.70;93.40
6724;DHT22;3399;52.530;13.304;2023-02-07T15:54:50;1.70;94.00
6724;DHT22;3399;52.530;13.304;2023-02-07T15:57:28;1.60;94.20
6724;DHT22;3399;52.530;13.304;2023-02-07T16:00:02;1.60;94.40
6724;DHT22;3399;52.530;13.304;2023-02-07T16:02:30;1.50;94.30
6724;DHT22;3399;52.530;13.304;2023-02-07T16:04:57;1.50;95.30
6724;DHT22;3399;52.530;13.304;2023-02-07T16:07:23;1.50;95.50
6724;DHT22;3399;52.530;13.304;2023-02-07T16:09:49;1.50;96.70
6724;DHT22;3399;52.530;13.304;2023-02-07T16:15:50;1.60;98.50
6724;DHT22;3399;52.530;13.304;2023-02-07T16:18:36;1.60;99.60
6724;DHT22;3399;52.530;13.304;2023-02-07T16:21:04;1.80;99.10
6724;DHT22;3399;52.530;13.304;2023-02-07T16:23:29;1.70;99.90
6724;DHT22;3399;52.530;13.304;2023-02-07T16:25:55;1.50;98.10
6724;DHT22;3399;52.530;13.304;2023-02-07T16:28:23;1.40;98.30
6724;DHT22;3399;52.530;13.304;2023-02-07T16:30:48;1.30;99.70
6724;DHT22;3399;52.530;13.304;2023-02-07T16:33:14;1.30;99.90
6724;DHT22;3399;52.530;13.304;2023-02-07T16:35:40;1.30;99.90
6724;DHT22;3399;52.530;13.304;2023-02-07T16:38:05;1.40;99.90
6724;DHT22;3399;52.530;13.304;2023-02-07T16:40:30;1.20;99.90
6724;DHT22;3399;52.530;13.304;2023-02-07T16:42:56;1.00;99.90
6724;DHT22;3399;52.530;13.304;2023-02-07T16:45:26;0.90;99.90
6724;DHT22;3399;52.530;13.304;2023-02-07T16:47:53;0.80;99.90
6724;DHT22;3399;52.530;13.304;2023-02-07T16:50:20;0.80;99.90
6724;DHT22;3399;52.530;13.304;2023-02-07T16:52:47;0.70;99.90
6724;DHT22;3399;52.530;13.304;2023-02-07T16:55:14;0.80;99.90
6724;DHT22;3399;52.530;13.304;2023-02-07T16:57:39;0.80;99.90
6724;DHT22;3399;52.530;13.304;2023-02-07T17:00:07;0.70;99.90
6724;DHT22;3399;52.530;13.304;2023-02-07T17:02:33;0.60;99.90
6724;DHT22;3399;52.530;13.304;2023-02-07T17:04:59;0.80;99.90
6724;DHT22;3399;52.530;13.304;2023-02-07T17:07:27;0.70;99.90
6724;DHT22;3399;52.530;13.304;2023-02-07T17:09:56;0.60;99.90
6724;DHT22;3399;52.530;13.304;2023-02-07T17:12:22;0.50;99.90
6724;DHT22;3399;52.530;13.304;2023-02-07T17:14:47;0.60;99.90
6724;DHT22;3399;52.530;13.304;2023-02-07T17:17:13;0.90;99.90
6724;DHT22;3399;52.530;13.304;2023-02-07T17:19:38;0.90;99.90
6724;DHT22;3399;52.530;13.304;2023-02-07T17:22:04;0.90;99.90
6724;DHT22;3399;52.530;13.304;2023-02-07T17:24:29;1.00;99.90
6724;DHT22;3399;52.530;13.304;2023-02-07T17:26:56;0.90;99.90
6724;DHT22;3399;52.530;13.304;2023-02-07T17:29:22;0.70;99.90
6724;DHT22;3399;52.530;13.304;2023-02-07T17:31:48;0.60;99.90
6724;DHT22;3399;52.530;13.304;2023-02-07T17:34:14;0.50;99.90
6724;DHT22;3399;52.530;13.304;2023-02-07T17:36:42;0.60;99.90
6724;DHT22;3399;52.530;13.304;2023-02-07T17:39:13;0.90;99.90
6724;DHT22;3399;52.530;13.304;2023-02-07T17:41:38;0.80;99.90
6724;DHT22;3399;52.530;13.304;2023-02-07T17:44:05;0.80;99.90
6724;DHT22;3399;52.530;13.304;2023-02-07T17:46:30;0.80;99.90
6724;DHT22;3399;52.530;13.304;2023-02-07T17:48:57;0.80;99.90
6724;DHT22;3399;52.530;13.304;2023-02-07T17:51:26;1.10;99.90